Time;durP1;ratioP1;P1;durP2;ratioP2;P2;SDS_P1;SDS_P2;PMS_P1;PMS_P2;Temp;Humidity;BMP_temperature;BMP_pressure;BME280_temperature;BME280_humidity;BME280_pressure;Samples;Min_cycle;Max_cycle;Signal;HPM_P1;HPM_P2
2022/03/16 00:01:16;;;;;;;25.30;19.85;;;8.30;99.90;;;;;;6131528;23;20521;-84
2022/03/16 00:03:43;;;;;;;27.98;20.67;;;8.40;99.90;;;;;;6130804;23;20199;-84
2022/03/16 00:06:10;;;;;;;28.45;22.00;;;8.40;99.90;;;;;;6132343;23;20655;-83
2022/03/16 00:08:38;;;;;;;30.92;22.13;;;8.40;99.90;;;;;;6131351;23;20260;-84
2022/03/16 00:11:05;;;;;;;28.15;21.83;;;8.50;99.90;;;;;;6131309;23;20181;-84
2022/03/16 00:13:33;;;;;;;30.85;22.98;;;8.40;99.90;;;;;;6131037;23;20183;-84
2022/03/16 00:16:00;;;;;;;34.90;21.63;;;8.50;99.90;;;;;;6131725;23;20524;-84
2022/03/16 00:18:27;;;;;;;33.78;21.02;;;8.50;99.90;;;;;;6131366;23;20207;-84
2022/03/16 00:20:55;;;;;;;32.80;23.05;;;8.70;99.90;;;;;;6131595;23;20518;-84
2022/03/16 00:23:23;;;;;;;32.85;23.13;;;8.70;99.90;;;;;;6130162;23;20200;-84
2022/03/16 00:25:52;;;;;;;32.13;23.98;;;8.70;99.90;;;;;;6131916;23;20256;-84
2022/03/16 00:28:20;;;;;;;32.55;24.13;;;8.70;99.90;;;;;;6130259;23;20208;-84
2022/03/16 00:30:47;;;;;;;35.67;22.63;;;8.70;99.90;;;;;;6129888;23;20180;-84
2022/03/16 00:33:15;;;;;;;36.13;25.00;;;8.70;99.90;;;;;;6131652;23;20184;-84
2022/03/16 00:35:43;;;;;;;29.48;22.73;;;8.60;99.90;;;;;;6130057;23;20184;-84
2022/03/16 00:38:13;;;;;;;34.28;23.30;;;8.60;99.90;;;;;;6131644;23;20207;-84
2022/03/16 00:40:40;;;;;;;32.58;24.73;;;8.70;99.90;;;;;;6130921;23;20186;-84
2022/03/16 00:43:08;;;;;;;39.28;26.38;;;8.30;99.90;;;;;;6130734;23;20540;-84
2022/03/16 00:45:36;;;;;;;33.55;24.73;;;8.20;99.90;;;;;;6130978;23;20180;-84
2022/03/16 00:48:03;;;;;;;37.78;26.50;;;8.30;99.90;;;;;;6131042;23;20259;-84
2022/03/16 00:50:30;;;;;;;32.78;25.75;;;8.20;99.90;;;;;;6130953;23;20184;-84
2022/03/16 00:52:57;;;;;;;44.92;29.95;;;8.40;99.90;;;;;;6130524;23;20222;-83
2022/03/16 00:55:24;;;;;;;39.45;27.80;;;8.30;99.90;;;;;;6131358;23;20496;-84
2022/03/16 00:57:51;;;;;;;43.30;26.77;;;8.30;99.90;;;;;;6131042;23;20282;-84
2022/03/16 01:00:33;;;;;;;34.65;24.65;;;8.50;99.90;;;;;;6131228;23;20636;-83
2022/03/16 01:03:01;;;;;;;39.17;26.33;;;8.50;99.90;;;;;;6130531;23;20202;-83
2022/03/16 01:05:28;;;;;;;36.97;26.10;;;8.70;99.90;;;;;;6130767;23;20191;-84
2022/03/16 01:07:56;;;;;;;33.28;25.08;;;8.90;99.90;;;;;;6130384;23;20204;-84
2022/03/16 01:10:23;;;;;;;36.92;28.05;;;8.90;99.90;;;;;;6130457;23;20183;-84
2022/03/16 01:12:53;;;;;;;29.65;24.83;;;9.00;99.90;;;;;;6130149;23;20301;-84
2022/03/16 01:15:23;;;;;;;35.17;25.88;;;9.00;99.90;;;;;;6130233;23;20215;-83
2022/03/16 01:17:50;;;;;;;37.15;27.73;;;9.00;99.90;;;;;;6131451;23;20207;-84
2022/03/16 01:20:17;;;;;;;33.72;26.92;;;9.10;99.90;;;;;;6130649;23;20184;-84
2022/03/16 01:22:44;;;;;;;36.75;28.00;;;9.10;99.90;;;;;;6131006;23;20202;-84
2022/03/16 01:25:11;;;;;;;37.20;26.58;;;9.10;99.90;;;;;;6130915;23;20184;-84
2022/03/16 01:27:38;;;;;;;37.90;26.07;;;9.20;99.90;;;;;;6130749;23;20219;-84
2022/03/16 01:30:06;;;;;;;34.45;25.67;;;9.20;99.90;;;;;;6130344;23;20411;-84
2022/03/16 01:32:36;;;;;;;34.10;26.27;;;9.10;99.90;;;;;;6130330;23;20190;-84
2022/03/16 01:35:03;;;;;;;34.25;26.15;;;9.10;99.90;;;;;;6130253;23;20187;-84
2022/03/16 01:37:32;;;;;;;44.30;28.50;;;9.20;99.90;;;;;;6131127;23;20200;-84
2022/03/16 01:40:00;;;;;;;40.63;30.00;;;9.30;99.90;;;;;;6131607;23;20446;-84
2022/03/16 01:42:27;;;;;;;36.73;26.23;;;9.30;99.90;;;;;;6129930;23;20213;-84
2022/03/16 01:44:57;;;;;;;37.33;26.60;;;9.40;99.90;;;;;;6130513;23;20409;-84
2022/03/16 01:47:25;;;;;;;37.13;26.60;;;9.40;99.90;;;;;;6130679;23;20304;-84
2022/03/16 01:49:55;;;;;;;36.65;24.52;;;9.40;99.90;;;;;;6129944;23;20424;-84
2022/03/16 01:52:30;;;;;;;31.73;25.33;;;9.50;99.90;;;;;;6131561;23;20165;-84
2022/03/16 01:54:58;;;;;;;30.65;23.65;;;9.50;99.90;;;;;;6130772;23;20203;-84
2022/03/16 01:57:26;;;;;;;37.95;25.10;;;9.60;99.90;;;;;;6130208;23;20207;-84
2022/03/16 01:59:53;;;;;;;30.23;22.73;;;9.60;99.90;;;;;;6130249;23;20541;-84
2022/03/16 02:02:20;;;;;;;31.20;25.70;;;9.60;99.90;;;;;;6130096;23;20180;-84
2022/03/16 02:04:47;;;;;;;37.72;25.45;;;9.60;99.90;;;;;;6130181;23;20448;-84
2022/03/16 02:07:16;;;;;;;33.05;26.23;;;9.60;99.90;;;;;;6129588;23;20265;-84
2022/03/16 02:09:44;;;;;;;33.33;25.02;;;9.60;99.90;;;;;;6131047;23;20181;-84
2022/03/16 02:12:13;;;;;;;33.78;26.30;;;9.60;99.90;;;;;;6129654;23;20177;-84
2022/03/16 02:14:40;;;;;;;32.70;24.30;;;9.60;99.90;;;;;;6129726;23;20281;-84
2022/03/16 02:17:07;;;;;;;38.40;26.50;;;9.60;99.90;;;;;;6129199;23;20445;-84
2022/03/16 02:19:34;;;;;;;39.03;27.77;;;9.60;99.90;;;;;;6130540;23;20419;-84
2022/03/16 02:22:07;;;;;;;39.47;28.40;;;9.60;99.90;;;;;;6129851;23;20190;-84
2022/03/16 02:24:37;;;;;;;41.40;28.67;;;9.50;99.90;;;;;;6129863;23;20982;-84
2022/03/16 02:27:06;;;;;;;41.00;28.87;;;9.60;99.90;;;;;;6129419;23;20845;-84
2022/03/16 02:29:34;;;;;;;46.00;32.30;;;9.60;99.90;;;;;;6133546;23;20416;-85
2022/03/16 02:32:01;;;;;;;44.90;30.63;;;9.50;99.90;;;;;;6132827;23;20397;-85
2022/03/16 02:34:28;;;;;;;46.05;31.30;;;9.60;99.90;;;;;;6133540;23;20696;-83
2022/03/16 02:36:55;;;;;;;39.07;29.07;;;9.60;99.90;;;;;;6132879;23;20763;-84
2022/03/16 02:39:22;;;;;;;43.40;31.73;;;9.60;99.90;;;;;;6132716;23;20904;-84
2022/03/16 02:41:52;;;;;;;44.05;30.38;;;9.70;99.90;;;;;;6132343;23;20267;-84
2022/03/16 02:44:19;;;;;;;43.05;28.70;;;9.70;99.90;;;;;;6131850;23;20289;-84
2022/03/16 02:46:46;;;;;;;45.97;31.90;;;9.70;99.90;;;;;;6132367;23;20201;-84
2022/03/16 02:49:13;;;;;;;43.63;30.50;;;9.70;99.90;;;;;;6132100;23;20420;-84
2022/03/16 02:51:40;;;;;;;45.03;32.10;;;9.70;99.90;;;;;;6132005;23;20924;-84
2022/03/16 02:54:07;;;;;;;44.67;30.92;;;9.80;99.90;;;;;;6133677;23;20236;-84
2022/03/16 02:56:35;;;;;;;42.53;30.77;;;9.70;99.90;;;;;;6134829;23;20184;-84
2022/03/16 02:59:04;;;;;;;36.75;29.52;;;9.70;99.90;;;;;;6108643;23;20190;-82
2022/03/16 03:01:31;;;;;;;37.30;29.15;;;9.80;99.90;;;;;;6132934;23;20182;-83
2022/03/16 03:04:00;;;;;;;36.33;30.08;;;9.80;99.90;;;;;;6134311;23;20193;-84
2022/03/16 03:06:30;;;;;;;45.00;28.90;;;9.80;99.90;;;;;;6135070;23;20181;-84
2022/03/16 03:08:56;;;;;;;41.47;29.90;;;9.80;99.90;;;;;;6135964;23;20507;-84
2022/03/16 03:11:23;;;;;;;40.07;29.00;;;9.70;99.90;;;;;;6134757;23;20471;-84
2022/03/16 03:13:50;;;;;;;39.33;29.00;;;9.70;99.90;;;;;;6135206;23;20414;-84
2022/03/16 03:16:25;;;;;;;44.97;31.80;;;9.70;99.90;;;;;;6135133;23;20422;-84
2022/03/16 03:18:53;;;;;;;45.73;32.60;;;9.70;99.90;;;;;;6134274;23;20504;-82
2022/03/16 03:21:21;;;;;;;42.08;29.40;;;9.70;99.90;;;;;;6134132;23;20481;-85
2022/03/16 03:23:48;;;;;;;44.33;30.95;;;9.70;99.90;;;;;;6134249;23;20192;-83
2022/03/16 03:26:15;;;;;;;45.20;32.70;;;9.70;99.90;;;;;;6134345;23;20204;-84
2022/03/16 03:28:44;;;;;;;44.67;31.50;;;9.80;99.90;;;;;;6134375;23;20760;-84
2022/03/16 03:31:13;;;;;;;42.50;30.35;;;9.80;99.90;;;;;;6134266;23;20421;-84
2022/03/16 03:33:42;;;;;;;47.07;32.97;;;9.80;99.90;;;;;;6133032;23;20184;-83
2022/03/16 03:36:10;;;;;;;41.23;31.50;;;9.80;99.90;;;;;;6134316;23;20444;-85
2022/03/16 03:38:37;;;;;;;41.63;28.87;;;9.80;99.90;;;;;;6134508;23;20505;-84
2022/03/16 03:41:05;;;;;;;44.40;32.40;;;9.80;99.90;;;;;;6133690;23;20427;-84
2022/03/16 03:43:33;;;;;;;44.22;30.38;;;9.70;99.90;;;;;;6134178;23;20400;-84
2022/03/16 03:46:02;;;;;;;44.08;31.73;;;9.70;99.90;;;;;;6134246;23;20180;-85
2022/03/16 03:48:29;;;;;;;41.28;31.63;;;9.80;99.90;;;;;;6134880;23;20255;-84
2022/03/16 03:51:00;;;;;;;43.97;30.20;;;9.70;99.90;;;;;;6131687;23;20236;-84
2022/03/16 03:53:29;;;;;;;40.77;31.30;;;9.70;99.90;;;;;;6131769;23;20426;-84
2022/03/16 03:55:58;;;;;;;39.30;28.67;;;9.70;99.90;;;;;;6131213;23;20516;-84
2022/03/16 03:58:27;;;;;;;45.08;29.17;;;9.70;99.90;;;;;;6130393;23;20201;-84
2022/03/16 04:00:57;;;;;;;45.03;30.97;;;9.70;99.90;;;;;;6130122;23;20275;-84
2022/03/16 04:03:24;;;;;;;43.40;33.30;;;9.70;99.90;;;;;;6131164;23;20429;-84
2022/03/16 04:05:51;;;;;;;50.10;34.70;;;9.70;99.90;;;;;;6130879;23;20501;-84
2022/03/16 04:08:20;;;;;;;51.47;31.87;;;9.80;99.90;;;;;;6130754;23;20515;-83
2022/03/16 04:11:19;;;;;;;51.77;33.60;;;9.80;99.90;;;;;;6130303;23;20483;-84
2022/03/16 04:13:56;;;;;;;49.45;33.22;;;9.70;99.90;;;;;;6105294;23;20420;-84
2022/03/16 04:16:23;;;;;;;46.05;32.25;;;9.70;99.90;;;;;;6105311;23;20230;-84
2022/03/16 04:18:50;;;;;;;53.00;35.63;;;9.60;99.90;;;;;;6130927;23;20200;-84
2022/03/16 04:21:17;;;;;;;48.25;32.67;;;9.30;99.90;;;;;;6130551;23;20573;-83
2022/03/16 04:24:17;;;;;;;54.60;36.40;;;9.30;99.90;;;;;;6132988;23;20219;-85
2022/03/16 04:26:45;;;;;;;55.88;37.60;;;9.20;99.90;;;;;;6130219;23;20256;-84
2022/03/16 04:29:11;;;;;;;53.30;34.33;;;9.20;99.90;;;;;;6133728;23;20171;-82
2022/03/16 04:31:38;;;;;;;51.17;33.00;;;9.10;99.90;;;;;;6134060;23;20760;-83
2022/03/16 04:34:05;;;;;;;51.97;34.90;;;9.10;99.90;;;;;;6133821;23;20408;-82
2022/03/16 04:36:32;;;;;;;52.40;35.38;;;9.00;99.90;;;;;;6133085;23;20181;-84
2022/03/16 04:38:58;;;;;;;57.78;40.05;;;9.20;99.90;;;;;;6132886;23;20184;-84
2022/03/16 04:41:25;;;;;;;52.53;37.00;;;9.00;99.90;;;;;;6132968;23;20187;-84
2022/03/16 04:43:54;;;;;;;51.35;35.90;;;8.90;99.90;;;;;;6133809;23;20206;-84
2022/03/16 04:46:21;;;;;;;57.55;37.85;;;9.00;99.90;;;;;;6134582;23;20181;-84
2022/03/16 04:48:47;;;;;;;54.60;36.67;;;9.00;99.90;;;;;;6134484;23;20728;-83
2022/03/16 04:51:15;;;;;;;59.23;38.03;;;8.90;99.90;;;;;;6133197;23;20252;-84
2022/03/16 04:53:43;;;;;;;62.47;37.78;;;9.10;99.90;;;;;;6133342;23;20439;-84
2022/03/16 04:56:12;;;;;;;55.60;36.70;;;9.10;99.90;;;;;;6132585;23;20207;-84
2022/03/16 04:58:39;;;;;;;49.38;31.25;;;9.00;99.90;;;;;;6133255;23;20202;-84
2022/03/16 05:01:10;;;;;;;52.50;36.00;;;9.00;99.90;;;;;;6132339;23;20252;-83
2022/03/16 05:03:37;;;;;;;54.13;34.15;;;9.00;99.90;;;;;;6131779;23;20170;-84
2022/03/16 05:06:08;;;;;;;55.10;36.07;;;9.00;99.90;;;;;;6133013;23;20202;-83
2022/03/16 05:08:37;;;;;;;53.20;35.83;;;8.90;99.90;;;;;;6132522;23;20456;-84
2022/03/16 05:11:06;;;;;;;47.67;30.83;;;9.10;99.90;;;;;;6131659;23;20742;-83
2022/03/16 05:16:15;;;;;;;49.60;31.58;;;9.10;99.90;;;;;;6133877;23;20255;-84
2022/03/16 05:18:45;;;;;;;48.65;31.27;;;9.00;99.90;;;;;;6132754;23;20199;-82
2022/03/16 05:21:13;;;;;;;52.25;35.95;;;9.00;99.90;;;;;;6132083;23;20201;-84
2022/03/16 05:23:44;;;;;;;50.15;33.10;;;8.70;99.90;;;;;;6133126;23;20193;-84
2022/03/16 05:26:13;;;;;;;59.38;36.85;;;8.70;99.90;;;;;;6133759;23;20180;-84
2022/03/16 05:28:42;;;;;;;48.92;34.80;;;8.70;99.90;;;;;;6132265;23;20219;-84
2022/03/16 05:31:10;;;;;;;55.92;35.50;;;8.80;99.90;;;;;;6134115;23;20177;-83
2022/03/16 05:33:40;;;;;;;50.80;33.15;;;8.90;99.90;;;;;;6135040;23;20219;-84
2022/03/16 05:36:08;;;;;;;53.58;31.83;;;9.10;99.90;;;;;;6133629;23;20228;-84
2022/03/16 05:38:35;;;;;;;48.83;32.80;;;9.00;99.90;;;;;;6133004;23;20251;-84
2022/03/16 05:41:05;;;;;;;55.25;33.15;;;9.10;99.90;;;;;;6133400;23;20408;-84
2022/03/16 05:43:32;;;;;;;43.88;33.33;;;9.20;99.90;;;;;;6134582;23;20175;-84
2022/03/16 05:46:01;;;;;;;43.38;30.27;;;9.20;99.90;;;;;;6133957;23;20275;-83
2022/03/16 05:48:28;;;;;;;49.17;30.85;;;9.30;99.90;;;;;;6133282;23;20200;-84
2022/03/16 05:50:58;;;;;;;57.45;36.38;;;9.30;99.90;;;;;;6133709;23;20190;-83
2022/03/16 05:53:26;;;;;;;57.03;35.78;;;9.20;99.90;;;;;;6134098;23;20179;-84
2022/03/16 05:55:59;;;;;;;49.45;32.33;;;9.30;99.90;;;;;;6133707;23;20504;-84
2022/03/16 05:58:26;;;;;;;50.30;32.85;;;9.40;99.90;;;;;;6132907;23;20226;-84
2022/03/16 06:00:53;;;;;;;50.85;32.05;;;9.40;99.90;;;;;;6133613;23;20186;-84
2022/03/16 06:03:20;;;;;;;51.38;32.50;;;9.40;99.90;;;;;;6134801;23;20176;-83
2022/03/16 06:05:50;;;;;;;47.17;33.00;;;9.50;99.90;;;;;;6134127;23;20196;-84
2022/03/16 06:08:18;;;;;;;50.17;34.08;;;9.50;99.90;;;;;;6132763;23;20468;-84
2022/03/16 06:10:46;;;;;;;56.67;36.83;;;9.50;99.90;;;;;;6134054;23;20189;-84
2022/03/16 06:13:13;;;;;;;54.03;36.47;;;9.50;99.90;;;;;;6133812;23;20212;-84
2022/03/16 06:15:41;;;;;;;56.42;35.97;;;9.60;99.90;;;;;;6134514;23;20442;-84
2022/03/16 06:18:08;;;;;;;60.30;39.43;;;9.60;99.90;;;;;;6133736;23;20537;-84
2022/03/16 06:20:36;;;;;;;54.17;34.30;;;9.60;99.90;;;;;;6133596;23;20920;-84
2022/03/16 06:23:04;;;;;;;55.97;35.17;;;9.70;99.90;;;;;;6133246;23;20419;-83
2022/03/16 06:25:36;;;;;;;51.20;31.73;;;9.70;99.90;;;;;;6133504;23;20448;-84
2022/03/16 06:28:04;;;;;;;53.20;34.27;;;9.80;99.90;;;;;;6133457;23;20525;-84
2022/03/16 06:30:31;;;;;;;53.33;34.58;;;9.80;99.90;;;;;;6136268;23;20416;-84
2022/03/16 06:32:59;;;;;;;59.07;36.00;;;9.80;99.90;;;;;;6145781;23;20205;-81
2022/03/16 06:35:27;;;;;;;55.07;34.97;;;9.80;99.90;;;;;;6150956;23;20405;-82
2022/03/16 06:37:58;;;;;;;52.50;35.97;;;9.90;99.90;;;;;;6146291;23;20448;-83
2022/03/16 06:40:24;;;;;;;57.30;33.50;;;9.90;99.90;;;;;;6135756;23;20451;-84
2022/03/16 06:43:14;;;;;;;56.37;34.87;;;9.90;99.90;;;;;;6144210;23;20415;-84
2022/03/16 06:45:41;;;;;;;59.43;35.47;;;9.90;99.90;;;;;;6138999;23;20523;-85
2022/03/16 06:48:11;;;;;;;55.47;34.00;;;10.00;99.90;;;;;;6151031;23;20463;-84
2022/03/16 06:50:46;;;;;;;57.43;36.00;;;10.00;99.90;;;;;;6151068;23;20396;-84
2022/03/16 06:53:24;;;;;;;59.97;36.53;;;9.90;99.90;;;;;;6150351;23;20387;-85
2022/03/16 06:55:59;;;;;;;55.47;34.10;;;10.00;99.90;;;;;;6151054;23;20451;-83
2022/03/16 06:58:29;;;;;;;57.70;37.13;;;10.00;99.90;;;;;;6148187;23;20516;-84
2022/03/16 07:01:02;;;;;;;48.60;33.30;;;10.00;99.90;;;;;;6110295;23;20917;-84
2022/03/16 07:03:31;;;;;;;50.00;34.33;;;10.10;99.90;;;;;;6136302;23;20611;-85
2022/03/16 07:06:10;;;;;;;45.10;30.63;;;10.10;99.90;;;;;;6135383;23;20455;-85
2022/03/16 07:08:39;;;;;;;47.03;32.50;;;10.10;99.90;;;;;;6134966;23;21023;-85
2022/03/16 07:14:32;;;;;;;50.70;32.37;;;10.20;99.90;;;;;;6135041;23;20257;-84
2022/03/16 07:17:05;;;;;;;47.07;28.40;;;10.30;99.90;;;;;;6135496;23;20762;-84
2022/03/16 07:19:36;;;;;;;50.67;32.15;;;10.40;99.90;;;;;;6134004;23;20434;-85
2022/03/16 07:22:05;;;;;;;50.90;32.53;;;10.40;99.90;;;;;;6133594;23;20170;-85
2022/03/16 07:24:36;;;;;;;56.47;32.17;;;10.40;99.90;;;;;;6134581;23;20386;-83
2022/03/16 07:27:07;;;;;;;49.67;30.87;;;10.50;99.90;;;;;;6134133;23;20451;-84
2022/03/16 07:29:39;;;;;;;44.30;29.20;;;10.50;99.90;;;;;;6133137;23;20556;-84
2022/03/16 07:32:10;;;;;;;45.00;31.30;;;10.50;99.90;;;;;;6134664;23;20423;-85
2022/03/16 07:34:44;;;;;;;47.03;31.60;;;10.60;99.90;;;;;;6133718;23;20427;-84
2022/03/16 07:37:23;;;;;;;51.93;31.37;;;10.60;99.90;;;;;;6133842;23;20516;-85
2022/03/16 07:40:06;;;;;;;44.40;29.03;;;10.60;99.90;;;;;;6134330;23;20422;-85
2022/03/16 07:42:33;;;;;;;50.53;30.50;;;10.60;99.90;;;;;;6133122;23;20910;-82
2022/03/16 07:45:01;;;;;;;55.53;32.40;;;10.60;99.90;;;;;;6134070;23;20468;-83
2022/03/16 07:47:28;;;;;;;49.93;31.57;;;10.60;99.90;;;;;;6132489;23;20438;-82
2022/03/16 07:49:56;;;;;;;50.27;31.10;;;10.50;99.90;;;;;;6132684;23;20417;-83
2022/03/16 07:52:23;;;;;;;46.00;27.60;;;10.50;99.90;;;;;;6132505;23;20418;-83
2022/03/16 07:54:50;;;;;;;51.00;31.53;;;10.50;99.90;;;;;;6131771;23;20409;-83
2022/03/16 07:57:17;;;;;;;51.43;33.27;;;10.50;99.90;;;;;;6131421;23;20429;-83
2022/03/16 07:59:44;;;;;;;47.87;28.80;;;10.60;99.90;;;;;;6133644;23;20417;-83
2022/03/16 08:02:37;;;;;;;48.03;32.00;;;10.60;99.90;;;;;;6131982;23;20423;-84
2022/03/16 08:05:04;;;;;;;46.63;29.27;;;10.70;99.90;;;;;;6132172;23;20448;-83
2022/03/16 08:07:31;;;;;;;46.77;29.90;;;10.70;99.90;;;;;;6134244;23;20441;-82
2022/03/16 08:09:58;;;;;;;50.97;32.10;;;10.80;99.90;;;;;;6137289;23;20421;-83
2022/03/16 08:12:30;;;;;;;47.80;31.07;;;10.80;99.90;;;;;;6132964;23;20457;-82
2022/03/16 08:18:29;;;;;;;51.90;31.37;;;10.80;99.90;;;;;;6131022;23;20501;-85
2022/03/16 08:24:43;;;;;;;40.87;26.73;;;10.90;99.90;;;;;;6135685;23;20425;-85
2022/03/16 08:27:19;;;;;;;41.50;27.70;;;10.80;99.90;;;;;;6134750;23;20886;-85
2022/03/16 08:33:15;;;;;;;40.07;25.50;;;10.70;99.90;;;;;;6132007;23;20497;-85
2022/03/16 08:39:02;;;;;;;38.67;29.30;;;10.90;99.90;;;;;;6098850;23;20450;-85
2022/03/16 08:44:57;;;;;;;42.03;28.60;;;10.90;99.90;;;;;;6131396;23;20481;-85
2022/03/16 08:47:29;;;;;;;34.87;27.20;;;10.90;99.90;;;;;;6134292;23;20406;-85
2022/03/16 08:50:13;;;;;;;33.30;24.43;;;11.00;99.90;;;;;;6134817;23;20431;-86
2022/03/16 08:52:44;;;;;;;38.83;25.47;;;11.10;99.90;;;;;;6134190;23;20474;-84
2022/03/16 08:55:14;;;;;;;38.80;25.40;;;11.20;99.90;;;;;;6135610;23;20426;-84
2022/03/16 08:57:43;;;;;;;33.70;24.67;;;11.30;99.90;;;;;;6136308;23;20385;-84
2022/03/16 09:00:14;;;;;;;35.70;26.13;;;11.30;99.90;;;;;;6140035;23;20993;-85
2022/03/16 09:02:41;;;;;;;33.27;24.13;;;11.40;99.90;;;;;;6136162;23;20407;-85
2022/03/16 09:05:09;;;;;;;36.10;24.53;;;11.40;99.90;;;;;;6133558;23;20458;-86
2022/03/16 09:07:38;;;;;;;35.70;22.80;;;11.40;99.90;;;;;;6133638;23;20453;-84
2022/03/16 09:10:06;;;;;;;35.10;26.07;;;11.30;99.90;;;;;;6138616;23;20469;-84
2022/03/16 09:12:34;;;;;;;42.67;27.63;;;11.40;99.90;;;;;;6142132;23;20463;-85
2022/03/16 09:15:01;;;;;;;35.57;24.90;;;11.50;99.90;;;;;;6141351;23;20419;-83
2022/03/16 09:17:30;;;;;;;36.50;26.10;;;11.60;99.90;;;;;;6139980;23;20420;-83
2022/03/16 09:19:57;;;;;;;28.97;23.20;;;11.60;99.90;;;;;;6140085;23;20444;-84
2022/03/16 09:22:24;;;;;;;37.53;26.37;;;11.60;99.90;;;;;;6139306;23;20479;-84
2022/03/16 09:24:51;;;;;;;36.40;25.23;;;11.60;99.90;;;;;;6138853;23;20483;-83
2022/03/16 09:27:19;;;;;;;35.40;26.70;;;11.50;99.90;;;;;;6138964;23;20489;-83
2022/03/16 09:29:47;;;;;;;36.50;25.40;;;11.50;99.90;;;;;;6138914;23;20481;-84
2022/03/16 09:32:15;;;;;;;31.57;23.30;;;11.50;99.90;;;;;;6141175;23;20403;-84
2022/03/16 09:34:42;;;;;;;35.00;25.07;;;11.50;99.90;;;;;;6137876;23;20443;-84
2022/03/16 09:37:10;;;;;;;27.40;22.73;;;11.60;99.90;;;;;;6134300;23;20481;-84
2022/03/16 09:39:38;;;;;;;33.83;24.30;;;11.60;99.90;;;;;;6134737;23;20466;-85
2022/03/16 09:42:05;;;;;;;33.30;22.80;;;11.70;99.90;;;;;;6134969;23;20453;-84
2022/03/16 09:44:33;;;;;;;30.07;20.97;;;11.80;99.90;;;;;;6133975;23;20493;-84
2022/03/16 09:47:01;;;;;;;27.60;21.70;;;11.80;99.90;;;;;;6135900;23;20511;-84
2022/03/16 09:49:28;;;;;;;28.40;22.10;;;11.90;99.90;;;;;;6135360;23;20498;-84
2022/03/16 09:51:56;;;;;;;30.53;20.73;;;12.00;99.90;;;;;;6136512;23;20419;-86
2022/03/16 09:54:23;;;;;;;27.03;22.40;;;11.80;99.90;;;;;;6136082;23;20425;-84
2022/03/16 09:56:50;;;;;;;24.83;19.90;;;11.90;99.90;;;;;;6135960;23;20421;-85
2022/03/16 09:59:17;;;;;;;24.50;20.90;;;12.00;99.90;;;;;;6135531;23;20778;-85
2022/03/16 10:01:44;;;;;;;29.97;20.67;;;12.10;99.90;;;;;;6135514;23;20419;-85
2022/03/16 10:04:54;;;;;;;26.60;19.70;;;12.10;99.90;;;;;;6134977;23;20422;-86
2022/03/16 10:07:31;;;;;;;22.60;16.90;;;12.30;99.90;;;;;;6111236;23;20846;-86
2022/03/16 10:15:27;;;;;;;20.67;17.60;;;12.70;99.90;;;;;;6134941;23;20407;-86
2022/03/16 10:18:00;;;;;;;24.77;18.37;;;12.70;99.90;;;;;;6134376;23;20502;-85
2022/03/16 10:20:30;;;;;;;22.23;17.97;;;12.60;99.90;;;;;;6134353;23;20762;-85
2022/03/16 10:23:01;;;;;;;21.70;18.27;;;12.50;99.90;;;;;;6134726;23;20446;-85
2022/03/16 10:25:30;;;;;;;24.00;20.13;;;12.60;99.90;;;;;;6134864;23;20435;-85
2022/03/16 10:28:14;;;;;;;25.90;20.17;;;12.50;99.90;;;;;;6134471;23;20510;-86
2022/03/16 10:30:52;;;;;;;20.10;17.37;;;12.50;99.90;;;;;;6133661;23;20483;-85
2022/03/16 10:33:20;;;;;;;21.43;17.37;;;12.50;99.90;;;;;;6134618;23;20399;-85
2022/03/16 10:36:00;;;;;;;23.60;18.83;;;12.60;99.90;;;;;;6134213;23;20475;-85
2022/03/16 10:38:29;;;;;;;20.23;16.20;;;12.70;99.90;;;;;;6133861;23;20439;-85
2022/03/16 10:41:09;;;;;;;22.37;17.63;;;12.80;99.90;;;;;;6134061;23;20502;-86
2022/03/16 10:46:38;;;;;;;23.27;17.87;;;12.90;99.90;;;;;;6133638;23;20434;-85
2022/03/16 10:49:07;;;;;;;20.50;16.40;;;12.90;99.90;;;;;;6133750;23;20494;-85
2022/03/16 10:51:34;;;;;;;21.20;16.67;;;13.10;99.90;;;;;;6133574;23;20450;-86
2022/03/16 10:54:03;;;;;;;23.10;18.23;;;13.20;99.90;;;;;;6133721;23;20417;-85
2022/03/16 10:56:31;;;;;;;22.77;18.30;;;13.40;99.90;;;;;;6133859;23;20471;-86
2022/03/16 10:58:58;;;;;;;22.40;19.97;;;13.50;99.90;;;;;;6133325;23;20436;-86
2022/03/16 11:01:27;;;;;;;21.00;16.73;;;13.70;99.90;;;;;;6132908;23;20420;-86
2022/03/16 11:03:58;;;;;;;21.67;17.07;;;13.80;99.90;;;;;;6133522;23;20416;-85
2022/03/16 11:06:25;;;;;;;18.80;15.70;;;14.00;99.90;;;;;;6133005;23;20431;-86
2022/03/16 11:08:53;;;;;;;23.87;17.40;;;14.20;99.90;;;;;;6132972;23;20432;-86
2022/03/16 11:14:08;;;;;;;20.00;16.27;;;14.50;99.90;;;;;;6132924;23;20469;-85
2022/03/16 11:16:35;;;;;;;21.57;17.90;;;14.60;99.90;;;;;;6135046;23;20466;-86
2022/03/16 11:19:05;;;;;;;22.23;16.90;;;14.80;99.90;;;;;;6134191;23;20432;-85
2022/03/16 11:21:45;;;;;;;22.10;18.00;;;15.00;99.90;;;;;;6135119;23;20446;-85
2022/03/16 11:24:16;;;;;;;20.13;16.30;;;15.20;99.90;;;;;;6134957;23;20399;-86
2022/03/16 11:27:11;;;;;;;20.13;16.67;;;15.20;99.90;;;;;;6135314;23;20438;-85
2022/03/16 11:29:47;;;;;;;22.30;17.40;;;15.20;99.90;;;;;;6114454;23;20450;-85
2022/03/16 11:32:16;;;;;;;18.23;16.33;;;15.30;99.90;;;;;;6134258;23;20399;-85
2022/03/16 11:34:48;;;;;;;20.30;16.67;;;15.50;99.90;;;;;;6133601;23;20411;-86
2022/03/16 11:37:15;;;;;;;20.30;17.33;;;15.80;99.90;;;;;;6134719;23;20396;-85
2022/03/16 11:39:44;;;;;;;19.27;17.40;;;16.10;99.90;;;;;;6141932;23;20447;-85
2022/03/16 11:42:17;;;;;;;21.10;15.00;;;16.30;99.60;;;;;;6145013;23;20820;-86
2022/03/16 11:44:44;;;;;;;19.60;17.57;;;16.40;98.80;;;;;;6144871;23;20396;-85
2022/03/16 11:47:36;;;;;;;17.33;15.07;;;16.60;99.00;;;;;;6140999;23;20448;-85
2022/03/16 11:50:11;;;;;;;17.60;15.60;;;16.80;98.40;;;;;;6134334;23;20442;-86
2022/03/16 11:52:58;;;;;;;20.27;16.40;;;16.90;98.40;;;;;;6134725;23;20452;-86
2022/03/16 11:55:44;;;;;;;20.77;16.40;;;17.00;97.60;;;;;;6134493;23;20711;-85
2022/03/16 11:58:26;;;;;;;17.07;15.27;;;17.10;97.70;;;;;;6134216;23;20947;-86
2022/03/16 12:01:29;;;;;;;17.57;15.67;;;17.40;97.90;;;;;;6134097;23;20398;-85
2022/03/16 12:04:11;;;;;;;15.10;13.50;;;17.70;96.80;;;;;;6133301;23;20391;-85
2022/03/16 12:06:53;;;;;;;16.27;14.57;;;17.90;96.50;;;;;;6134183;23;20437;-85
2022/03/16 12:09:30;;;;;;;21.10;17.13;;;18.00;95.70;;;;;;6134171;23;20514;-85
2022/03/16 12:15:14;;;;;;;20.30;16.47;;;18.00;95.20;;;;;;6133971;23;20393;-85
2022/03/16 12:17:42;;;;;;;17.43;15.57;;;17.80;94.90;;;;;;6133816;23;20398;-85
2022/03/16 12:20:16;;;;;;;16.17;14.57;;;17.80;94.70;;;;;;6134054;23;20418;-85
2022/03/16 12:22:46;;;;;;;20.17;17.70;;;17.70;94.90;;;;;;6134042;23;20423;-86
2022/03/16 12:25:31;;;;;;;17.63;15.63;;;17.60;94.60;;;;;;6133162;23;20406;-86
2022/03/16 12:30:48;;;;;;;17.80;15.10;;;17.10;95.20;;;;;;6132603;23;20386;-85
2022/03/16 12:33:19;;;;;;;17.10;14.97;;;17.00;95.40;;;;;;6133199;23;20410;-85
2022/03/16 12:35:47;;;;;;;17.63;15.10;;;16.70;95.50;;;;;;6133126;23;20410;-85
2022/03/16 12:38:14;;;;;;;18.87;16.40;;;16.60;95.90;;;;;;6132696;23;20432;-85
2022/03/16 12:42:31;;;;;;;16.53;14.00;;;16.60;96.10;;;;;;6132722;23;20524;-85
2022/03/16 12:43:31;;;;;;;17.40;15.80;;;16.50;96.00;;;;;;6131768;23;20408;-85
2022/03/16 12:46:09;;;;;;;19.63;16.30;;;16.50;96.00;;;;;;6131901;23;20462;-85
2022/03/16 12:48:37;;;;;;;18.70;16.40;;;16.40;96.10;;;;;;6132645;23;20524;-84
2022/03/16 12:51:04;;;;;;;16.53;14.43;;;16.30;96.10;;;;;;6131814;23;20416;-84
2022/03/16 12:53:44;;;;;;;17.03;15.23;;;16.30;96.60;;;;;;6132601;23;20416;-84
2022/03/16 12:56:16;;;;;;;17.80;15.90;;;16.20;96.20;;;;;;6133480;23;20404;-84
2022/03/16 12:58:43;;;;;;;17.80;15.70;;;16.00;96.80;;;;;;6133928;23;20443;-84
2022/03/16 13:01:18;;;;;;;21.90;17.93;;;16.00;96.50;;;;;;6131666;23;20412;-84
2022/03/16 13:03:45;;;;;;;16.97;14.43;;;15.90;96.80;;;;;;6131895;23;20393;-84
2022/03/16 13:06:17;;;;;;;18.33;16.43;;;15.90;97.10;;;;;;6132232;23;20426;-84
2022/03/16 13:08:49;;;;;;;16.77;14.67;;;15.90;97.20;;;;;;6132102;23;20459;-84
2022/03/16 13:11:22;;;;;;;16.90;15.20;;;16.10;97.20;;;;;;6131547;23;20396;-84
2022/03/16 13:14:01;;;;;;;19.53;17.10;;;16.10;97.30;;;;;;6131137;23;20428;-84
2022/03/16 13:16:38;;;;;;;18.67;16.70;;;16.20;96.80;;;;;;6131854;23;20429;-84
2022/03/16 13:19:06;;;;;;;17.07;15.30;;;16.30;96.70;;;;;;6132970;23;20439;-84
2022/03/16 13:21:34;;;;;;;18.03;15.47;;;16.30;96.60;;;;;;6135511;23;20414;-84
2022/03/16 13:24:03;;;;;;;19.40;16.00;;;16.50;96.60;;;;;;6135903;23;20410;-84
2022/03/16 13:26:30;;;;;;;16.77;14.97;;;16.70;96.50;;;;;;6133221;23;20455;-84
2022/03/16 13:28:58;;;;;;;17.10;15.37;;;17.00;96.40;;;;;;6133329;23;20448;-84